sensor_id;sensor_type;location;lat;lon;timestamp;P1;durP1;ratioP1;P2;durP2;ratioP2
54121;SDS011;40029;58.708;50.190;2023-03-04T00:01:20;17.10;;;5.90;;
54121;SDS011;40029;58.708;50.190;2023-03-04T00:03:51;14.30;;;6.15;;
54121;SDS011;40029;58.708;50.190;2023-03-04T00:06:22;20.77;;;7.85;;
54121;SDS011;40029;58.708;50.190;2023-03-04T00:08:53;20.30;;;6.15;;
54121;SDS011;40029;58.708;50.190;2023-03-04T00:11:42;17.08;;;7.22;;
54121;SDS011;40029;58.708;50.190;2023-03-04T00:14:14;13.57;;;5.35;;
54121;SDS011;40029;58.708;50.190;2023-03-04T00:16:45;19.70;;;6.55;;
54121;SDS011;40029;58.708;50.190;2023-03-04T00:19:18;14.38;;;7.57;;
54121;SDS011;40029;58.708;50.190;2023-03-04T00:21:49;12.98;;;6.10;;
54121;SDS011;40029;58.708;50.190;2023-03-04T00:24:20;16.33;;;6.95;;
54121;SDS011;40029;58.708;50.190;2023-03-04T00:26:51;11.95;;;6.10;;
54121;SDS011;40029;58.708;50.190;2023-03-04T00:29:22;13.70;;;5.97;;
54121;SDS011;40029;58.708;50.190;2023-03-04T00:32:11;18.35;;;6.45;;
54121;SDS011;40029;58.708;50.190;2023-03-04T00:34:43;16.25;;;6.80;;
54121;SDS011;40029;58.708;50.190;2023-03-04T00:37:14;14.15;;;6.82;;
54121;SDS011;40029;58.708;50.190;2023-03-04T00:39:45;13.75;;;6.82;;
54121;SDS011;40029;58.708;50.190;2023-03-04T00:42:16;15.27;;;6.78;;
54121;SDS011;40029;58.708;50.190;2023-03-04T00:44:47;15.52;;;6.38;;
54121;SDS011;40029;58.708;50.190;2023-03-04T00:47:19;14.57;;;6.07;;
54121;SDS011;40029;58.708;50.190;2023-03-04T00:49:50;14.93;;;5.93;;
54121;SDS011;40029;58.708;50.190;2023-03-04T00:52:21;14.93;;;5.82;;
54121;SDS011;40029;58.708;50.190;2023-03-04T00:54:52;16.50;;;5.88;;
54121;SDS011;40029;58.708;50.190;2023-03-04T00:57:23;13.73;;;5.75;;
54121;SDS011;40029;58.708;50.190;2023-03-04T00:59:54;14.13;;;6.00;;
54121;SDS011;40029;58.708;50.190;2023-03-04T01:02:27;17.27;;;5.50;;
54121;SDS011;40029;58.708;50.190;2023-03-04T01:04:59;10.05;;;5.00;;
54121;SDS011;40029;58.708;50.190;2023-03-04T01:07:30;10.15;;;5.38;;
54121;SDS011;40029;58.708;50.190;2023-03-04T01:10:01;9.90;;;5.55;;
54121;SDS011;40029;58.708;50.190;2023-03-04T01:12:33;12.80;;;5.97;;
54121;SDS011;40029;58.708;50.190;2023-03-04T01:15:04;14.93;;;5.97;;
54121;SDS011;40029;58.708;50.190;2023-03-04T01:17:36;15.38;;;6.50;;
54121;SDS011;40029;58.708;50.190;2023-03-04T01:20:07;15.85;;;5.80;;
54121;SDS011;40029;58.708;50.190;2023-03-04T01:22:39;14.48;;;5.93;;
54121;SDS011;40029;58.708;50.190;2023-03-04T01:25:11;17.33;;;5.85;;
54121;SDS011;40029;58.708;50.190;2023-03-04T01:27:43;16.52;;;5.93;;
54121;SDS011;40029;58.708;50.190;2023-03-04T01:30:32;14.43;;;5.85;;
54121;SDS011;40029;58.708;50.190;2023-03-04T01:33:22;15.02;;;5.97;;
54121;SDS011;40029;58.708;50.190;2023-03-04T01:36:11;17.35;;;6.43;;
54121;SDS011;40029;58.708;50.190;2023-03-04T01:38:42;17.65;;;5.65;;
54121;SDS011;40029;58.708;50.190;2023-03-04T01:41:22;11.70;;;5.55;;
54121;SDS011;40029;58.708;50.190;2023-03-04T01:43:55;12.45;;;5.78;;
54121;SDS011;40029;58.708;50.190;2023-03-04T01:46:30;11.90;;;4.97;;
54121;SDS011;40029;58.708;50.190;2023-03-04T01:49:02;14.93;;;5.57;;
54121;SDS011;40029;58.708;50.190;2023-03-04T01:51:52;16.60;;;6.50;;
54121;SDS011;40029;58.708;50.190;2023-03-04T01:54:24;12.77;;;6.03;;
54121;SDS011;40029;58.708;50.190;2023-03-04T01:56:55;16.23;;;6.25;;
54121;SDS011;40029;58.708;50.190;2023-03-04T01:59:30;16.40;;;7.57;;
54121;SDS011;40029;58.708;50.190;2023-03-04T02:02:01;15.70;;;6.30;;
54121;SDS011;40029;58.708;50.190;2023-03-04T02:04:33;16.63;;;6.53;;
54121;SDS011;40029;58.708;50.190;2023-03-04T02:07:04;18.90;;;6.75;;
54121;SDS011;40029;58.708;50.190;2023-03-04T02:09:36;15.50;;;6.28;;
54121;SDS011;40029;58.708;50.190;2023-03-04T02:12:07;15.75;;;7.25;;
54121;SDS011;40029;58.708;50.190;2023-03-04T02:14:39;12.73;;;6.40;;
54121;SDS011;40029;58.708;50.190;2023-03-04T02:17:10;18.15;;;7.47;;
54121;SDS011;40029;58.708;50.190;2023-03-04T02:19:48;22.40;;;6.78;;
54121;SDS011;40029;58.708;50.190;2023-03-04T02:22:26;21.23;;;7.77;;
54121;SDS011;40029;58.708;50.190;2023-03-04T02:24:59;21.65;;;6.90;;
54121;SDS011;40029;58.708;50.190;2023-03-04T02:27:55;20.95;;;7.45;;
54121;SDS011;40029;58.708;50.190;2023-03-04T02:30:26;22.92;;;8.00;;
54121;SDS011;40029;58.708;50.190;2023-03-04T02:32:57;20.27;;;7.47;;
54121;SDS011;40029;58.708;50.190;2023-03-04T02:35:29;23.38;;;7.97;;
54121;SDS011;40029;58.708;50.190;2023-03-04T02:38:00;24.13;;;8.38;;
54121;SDS011;40029;58.708;50.190;2023-03-04T02:40:32;18.75;;;7.65;;
54121;SDS011;40029;58.708;50.190;2023-03-04T02:43:23;23.55;;;8.07;;
54121;SDS011;40029;58.708;50.190;2023-03-04T02:45:55;25.08;;;7.88;;
54121;SDS011;40029;58.708;50.190;2023-03-04T02:48:26;22.30;;;8.10;;
54121;SDS011;40029;58.708;50.190;2023-03-04T02:50:58;24.20;;;7.95;;
54121;SDS011;40029;58.708;50.190;2023-03-04T02:53:29;23.60;;;8.05;;
54121;SDS011;40029;58.708;50.190;2023-03-04T02:56:00;24.30;;;9.32;;
54121;SDS011;40029;58.708;50.190;2023-03-04T02:58:35;25.48;;;8.63;;
54121;SDS011;40029;58.708;50.190;2023-03-04T03:01:08;23.10;;;8.45;;
54121;SDS011;40029;58.708;50.190;2023-03-04T03:03:39;23.08;;;8.95;;
54121;SDS011;40029;58.708;50.190;2023-03-04T03:06:10;20.77;;;8.88;;
54121;SDS011;40029;58.708;50.190;2023-03-04T03:08:42;29.98;;;9.32;;
54121;SDS011;40029;58.708;50.190;2023-03-04T03:11:13;27.15;;;8.95;;
54121;SDS011;40029;58.708;50.190;2023-03-04T03:13:44;19.25;;;7.93;;
54121;SDS011;40029;58.708;50.190;2023-03-04T03:16:15;25.63;;;8.40;;
54121;SDS011;40029;58.708;50.190;2023-03-04T03:18:46;24.58;;;9.27;;
54121;SDS011;40029;58.708;50.190;2023-03-04T03:21:18;26.90;;;8.57;;
54121;SDS011;40029;58.708;50.190;2023-03-04T03:23:49;24.63;;;8.63;;
54121;SDS011;40029;58.708;50.190;2023-03-04T03:26:20;29.85;;;9.10;;
54121;SDS011;40029;58.708;50.190;2023-03-04T03:28:51;26.85;;;8.13;;
54121;SDS011;40029;58.708;50.190;2023-03-04T03:31:22;25.33;;;7.68;;
54121;SDS011;40029;58.708;50.190;2023-03-04T03:33:53;23.60;;;7.90;;
54121;SDS011;40029;58.708;50.190;2023-03-04T03:36:25;19.50;;;7.75;;
54121;SDS011;40029;58.708;50.190;2023-03-04T03:38:56;26.75;;;8.75;;
54121;SDS011;40029;58.708;50.190;2023-03-04T03:41:45;23.55;;;8.45;;
54121;SDS011;40029;58.708;50.190;2023-03-04T03:44:35;19.10;;;7.85;;
54121;SDS011;40029;58.708;50.190;2023-03-04T03:47:06;18.98;;;7.82;;
54121;SDS011;40029;58.708;50.190;2023-03-04T03:49:37;18.75;;;7.82;;
54121;SDS011;40029;58.708;50.190;2023-03-04T03:52:08;19.88;;;7.95;;
54121;SDS011;40029;58.708;50.190;2023-03-04T03:54:39;26.92;;;7.68;;
54121;SDS011;40029;58.708;50.190;2023-03-04T03:57:10;17.20;;;6.18;;
54121;SDS011;40029;58.708;50.190;2023-03-04T03:59:41;14.48;;;6.35;;
54121;SDS011;40029;58.708;50.190;2023-03-04T04:02:12;18.15;;;6.60;;
54121;SDS011;40029;58.708;50.190;2023-03-04T04:04:43;21.80;;;6.45;;
54121;SDS011;40029;58.708;50.190;2023-03-04T04:07:14;15.68;;;6.28;;
54121;SDS011;40029;58.708;50.190;2023-03-04T04:10:04;15.95;;;6.38;;
54121;SDS011;40029;58.708;50.190;2023-03-04T04:12:35;16.83;;;7.30;;
54121;SDS011;40029;58.708;50.190;2023-03-04T04:15:08;15.13;;;7.10;;
54121;SDS011;40029;58.708;50.190;2023-03-04T04:17:41;15.77;;;6.63;;
54121;SDS011;40029;58.708;50.190;2023-03-04T04:20:12;16.15;;;6.53;;
54121;SDS011;40029;58.708;50.190;2023-03-04T04:22:44;13.68;;;6.78;;
54121;SDS011;40029;58.708;50.190;2023-03-04T04:25:15;20.25;;;7.65;;
54121;SDS011;40029;58.708;50.190;2023-03-04T04:28:05;21.95;;;8.27;;
54121;SDS011;40029;58.708;50.190;2023-03-04T04:30:37;12.25;;;6.95;;
54121;SDS011;40029;58.708;50.190;2023-03-04T04:33:08;13.35;;;6.30;;
54121;SDS011;40029;58.708;50.190;2023-03-04T04:35:58;10.82;;;5.88;;
54121;SDS011;40029;58.708;50.190;2023-03-04T04:38:30;13.38;;;5.45;;
54121;SDS011;40029;58.708;50.190;2023-03-04T04:41:02;15.20;;;6.00;;
54121;SDS011;40029;58.708;50.190;2023-03-04T04:43:34;11.88;;;6.43;;
54121;SDS011;40029;58.708;50.190;2023-03-04T04:46:05;20.70;;;7.75;;
54121;SDS011;40029;58.708;50.190;2023-03-04T04:48:36;17.40;;;8.27;;
54121;SDS011;40029;58.708;50.190;2023-03-04T04:51:07;22.35;;;9.00;;
54121;SDS011;40029;58.708;50.190;2023-03-04T04:53:38;27.30;;;10.80;;
54121;SDS011;40029;58.708;50.190;2023-03-04T04:56:14;28.60;;;9.35;;
54121;SDS011;40029;58.708;50.190;2023-03-04T04:58:47;20.60;;;8.88;;
54121;SDS011;40029;58.708;50.190;2023-03-04T05:01:37;20.20;;;9.75;;
54121;SDS011;40029;58.708;50.190;2023-03-04T05:04:08;32.90;;;12.45;;
54121;SDS011;40029;58.708;50.190;2023-03-04T05:06:39;27.60;;;9.82;;
54121;SDS011;40029;58.708;50.190;2023-03-04T05:09:11;71.40;;;19.30;;
54121;SDS011;40029;58.708;50.190;2023-03-04T05:11:42;77.72;;;20.38;;
54121;SDS011;40029;58.708;50.190;2023-03-04T05:14:13;62.97;;;17.73;;
54121;SDS011;40029;58.708;50.190;2023-03-04T05:16:44;94.10;;;25.02;;
54121;SDS011;40029;58.708;50.190;2023-03-04T05:19:15;72.25;;;18.77;;
54121;SDS011;40029;58.708;50.190;2023-03-04T05:21:47;43.28;;;13.15;;
54121;SDS011;40029;58.708;50.190;2023-03-04T05:24:18;15.38;;;6.50;;
54121;SDS011;40029;58.708;50.190;2023-03-04T05:26:49;11.80;;;5.82;;
54121;SDS011;40029;58.708;50.190;2023-03-04T05:29:20;19.33;;;8.10;;
54121;SDS011;40029;58.708;50.190;2023-03-04T05:31:51;15.63;;;7.22;;
54121;SDS011;40029;58.708;50.190;2023-03-04T05:34:23;11.98;;;6.07;;
54121;SDS011;40029;58.708;50.190;2023-03-04T05:36:54;17.50;;;8.80;;
54121;SDS011;40029;58.708;50.190;2023-03-04T05:39:25;16.15;;;7.22;;
54121;SDS011;40029;58.708;50.190;2023-03-04T05:41:56;10.00;;;5.63;;
54121;SDS011;40029;58.708;50.190;2023-03-04T05:44:27;19.70;;;9.27;;
54121;SDS011;40029;58.708;50.190;2023-03-04T05:46:58;24.77;;;10.40;;
54121;SDS011;40029;58.708;50.190;2023-03-04T05:49:29;44.97;;;14.05;;
54121;SDS011;40029;58.708;50.190;2023-03-04T05:52:00;61.45;;;17.52;;
54121;SDS011;40029;58.708;50.190;2023-03-04T05:54:31;38.47;;;12.57;;
54121;SDS011;40029;58.708;50.190;2023-03-04T05:57:02;68.18;;;20.77;;
54121;SDS011;40029;58.708;50.190;2023-03-04T05:59:33;53.45;;;16.38;;
54121;SDS011;40029;58.708;50.190;2023-03-04T06:02:04;49.25;;;14.32;;
54121;SDS011;40029;58.708;50.190;2023-03-04T06:04:35;63.60;;;20.55;;
54121;SDS011;40029;58.708;50.190;2023-03-04T06:07:06;84.38;;;21.42;;
54121;SDS011;40029;58.708;50.190;2023-03-04T06:09:37;118.15;;;30.58;;
54121;SDS011;40029;58.708;50.190;2023-03-04T06:12:08;125.20;;;29.20;;
54121;SDS011;40029;58.708;50.190;2023-03-04T06:14:39;87.32;;;24.80;;
54121;SDS011;40029;58.708;50.190;2023-03-04T06:17:29;40.15;;;13.38;;
54121;SDS011;40029;58.708;50.190;2023-03-04T06:20:00;28.20;;;10.05;;
54121;SDS011;40029;58.708;50.190;2023-03-04T06:22:31;59.95;;;20.13;;
54121;SDS011;40029;58.708;50.190;2023-03-04T06:25:03;27.95;;;11.00;;
54121;SDS011;40029;58.708;50.190;2023-03-04T06:27:35;32.85;;;14.65;;
54121;SDS011;40029;58.708;50.190;2023-03-04T06:30:06;55.97;;;22.73;;
54121;SDS011;40029;58.708;50.190;2023-03-04T06:32:38;25.92;;;10.20;;
54121;SDS011;40029;58.708;50.190;2023-03-04T06:35:10;21.45;;;9.70;;
54121;SDS011;40029;58.708;50.190;2023-03-04T06:37:42;16.73;;;7.25;;
54121;SDS011;40029;58.708;50.190;2023-03-04T06:40:13;27.67;;;8.13;;
54121;SDS011;40029;58.708;50.190;2023-03-04T06:42:44;17.15;;;6.00;;
54121;SDS011;40029;58.708;50.190;2023-03-04T06:45:15;20.65;;;6.55;;
54121;SDS011;40029;58.708;50.190;2023-03-04T06:47:46;3.55;;;2.35;;
54121;SDS011;40029;58.708;50.190;2023-03-04T06:50:18;12.68;;;4.55;;
54121;SDS011;40029;58.708;50.190;2023-03-04T06:52:49;13.13;;;4.97;;
54121;SDS011;40029;58.708;50.190;2023-03-04T06:55:20;21.90;;;9.55;;
54121;SDS011;40029;58.708;50.190;2023-03-04T06:57:51;6.57;;;3.35;;
54121;SDS011;40029;58.708;50.190;2023-03-04T07:00:22;21.75;;;7.13;;
54121;SDS011;40029;58.708;50.190;2023-03-04T07:02:57;45.83;;;14.65;;
54121;SDS011;40029;58.708;50.190;2023-03-04T07:05:28;12.02;;;5.95;;
54121;SDS011;40029;58.708;50.190;2023-03-04T07:08:18;15.60;;;6.90;;
54121;SDS011;40029;58.708;50.190;2023-03-04T07:10:49;30.35;;;11.25;;
54121;SDS011;40029;58.708;50.190;2023-03-04T07:13:20;28.75;;;9.60;;
54121;SDS011;40029;58.708;50.190;2023-03-04T07:15:51;17.85;;;7.18;;
54121;SDS011;40029;58.708;50.190;2023-03-04T07:18:23;10.55;;;5.00;;
54121;SDS011;40029;58.708;50.190;2023-03-04T07:20:54;8.13;;;3.70;;
54121;SDS011;40029;58.708;50.190;2023-03-04T07:23:43;10.93;;;4.97;;
54121;SDS011;40029;58.708;50.190;2023-03-04T07:26:15;24.92;;;10.48;;
54121;SDS011;40029;58.708;50.190;2023-03-04T07:28:47;9.00;;;4.60;;
54121;SDS011;40029;58.708;50.190;2023-03-04T07:33:58;8.20;;;4.25;;
54121;SDS011;40029;58.708;50.190;2023-03-04T07:36:31;8.23;;;5.13;;
54121;SDS011;40029;58.708;50.190;2023-03-04T07:39:05;8.57;;;3.45;;
54121;SDS011;40029;58.708;50.190;2023-03-04T07:41:37;10.80;;;4.68;;
54121;SDS011;40029;58.708;50.190;2023-03-04T07:44:27;11.98;;;6.10;;
54121;SDS011;40029;58.708;50.190;2023-03-04T07:46:58;13.65;;;5.50;;
54121;SDS011;40029;58.708;50.190;2023-03-04T07:49:29;7.80;;;4.00;;
54121;SDS011;40029;58.708;50.190;2023-03-04T07:52:04;9.27;;;3.97;;
54121;SDS011;40029;58.708;50.190;2023-03-04T07:57:06;17.63;;;6.68;;
54121;SDS011;40029;58.708;50.190;2023-03-04T07:59:37;30.63;;;11.18;;
54121;SDS011;40029;58.708;50.190;2023-03-04T08:02:08;29.63;;;11.88;;
54121;SDS011;40029;58.708;50.190;2023-03-04T08:04:40;11.07;;;5.85;;
54121;SDS011;40029;58.708;50.190;2023-03-04T08:07:11;20.27;;;7.05;;
54121;SDS011;40029;58.708;50.190;2023-03-04T08:09:42;32.17;;;10.73;;
54121;SDS011;40029;58.708;50.190;2023-03-04T08:12:13;44.70;;;15.77;;
54121;SDS011;40029;58.708;50.190;2023-03-04T08:14:44;44.83;;;14.95;;
54121;SDS011;40029;58.708;50.190;2023-03-04T08:17:34;32.03;;;11.35;;
54121;SDS011;40029;58.708;50.190;2023-03-04T08:20:05;15.75;;;6.72;;
54121;SDS011;40029;58.708;50.190;2023-03-04T08:22:37;23.48;;;9.35;;
54121;SDS011;40029;58.708;50.190;2023-03-04T08:25:09;38.70;;;16.52;;
54121;SDS011;40029;58.708;50.190;2023-03-04T08:27:40;62.15;;;22.08;;
54121;SDS011;40029;58.708;50.190;2023-03-04T08:30:11;17.27;;;7.65;;
54121;SDS011;40029;58.708;50.190;2023-03-04T08:32:43;31.35;;;12.95;;
54121;SDS011;40029;58.708;50.190;2023-03-04T08:35:14;21.17;;;8.43;;
54121;SDS011;40029;58.708;50.190;2023-03-04T08:37:45;25.85;;;8.48;;
54121;SDS011;40029;58.708;50.190;2023-03-04T08:40:16;17.65;;;5.80;;
54121;SDS011;40029;58.708;50.190;2023-03-04T08:42:47;17.77;;;5.55;;
54121;SDS011;40029;58.708;50.190;2023-03-04T08:45:18;17.85;;;6.20;;
54121;SDS011;40029;58.708;50.190;2023-03-04T08:48:08;26.02;;;8.95;;
54121;SDS011;40029;58.708;50.190;2023-03-04T08:50:39;23.75;;;9.40;;
54121;SDS011;40029;58.708;50.190;2023-03-04T08:53:28;42.97;;;13.07;;
54121;SDS011;40029;58.708;50.190;2023-03-04T08:55:59;21.23;;;9.38;;
54121;SDS011;40029;58.708;50.190;2023-03-04T08:58:30;32.35;;;13.30;;
54121;SDS011;40029;58.708;50.190;2023-03-04T09:01:02;30.20;;;12.88;;
54121;SDS011;40029;58.708;50.190;2023-03-04T09:03:33;18.67;;;7.50;;
54121;SDS011;40029;58.708;50.190;2023-03-04T09:06:05;15.52;;;6.82;;
54121;SDS011;40029;58.708;50.190;2023-03-04T09:08:36;18.52;;;7.47;;
54121;SDS011;40029;58.708;50.190;2023-03-04T09:11:07;22.10;;;10.35;;
54121;SDS011;40029;58.708;50.190;2023-03-04T09:13:39;19.55;;;8.00;;
54121;SDS011;40029;58.708;50.190;2023-03-04T09:16:11;12.43;;;6.55;;
54121;SDS011;40029;58.708;50.190;2023-03-04T09:18:43;17.73;;;6.88;;
54121;SDS011;40029;58.708;50.190;2023-03-04T09:21:14;18.85;;;7.95;;
54121;SDS011;40029;58.708;50.190;2023-03-04T09:23:46;12.73;;;7.78;;
54121;SDS011;40029;58.708;50.190;2023-03-04T09:26:21;36.95;;;17.10;;
54121;SDS011;40029;58.708;50.190;2023-03-04T09:28:55;25.70;;;10.75;;
54121;SDS011;40029;58.708;50.190;2023-03-04T09:31:28;18.65;;;9.05;;
54121;SDS011;40029;58.708;50.190;2023-03-04T09:33:59;40.08;;;15.50;;
54121;SDS011;40029;58.708;50.190;2023-03-04T09:36:30;25.63;;;11.23;;
54121;SDS011;40029;58.708;50.190;2023-03-04T09:39:02;26.92;;;11.18;;
54121;SDS011;40029;58.708;50.190;2023-03-04T09:41:54;21.90;;;10.18;;
54121;SDS011;40029;58.708;50.190;2023-03-04T09:44:29;9.68;;;4.60;;
54121;SDS011;40029;58.708;50.190;2023-03-04T09:47:11;19.60;;;8.15;;
54121;SDS011;40029;58.708;50.190;2023-03-04T09:49:47;19.67;;;9.40;;
54121;SDS011;40029;58.708;50.190;2023-03-04T09:52:32;18.88;;;8.10;;
54121;SDS011;40029;58.708;50.190;2023-03-04T09:55:43;13.77;;;6.85;;
54121;SDS011;40029;58.708;50.190;2023-03-04T10:01:32;28.67;;;11.60;;
54121;SDS011;40029;58.708;50.190;2023-03-04T10:04:13;29.75;;;11.43;;
54121;SDS011;40029;58.708;50.190;2023-03-04T10:06:50;9.70;;;5.20;;
54121;SDS011;40029;58.708;50.190;2023-03-04T10:09:24;26.13;;;9.63;;
54121;SDS011;40029;58.708;50.190;2023-03-04T10:12:12;29.25;;;11.20;;
54121;SDS011;40029;58.708;50.190;2023-03-04T10:14:49;32.72;;;12.65;;
54121;SDS011;40029;58.708;50.190;2023-03-04T10:23:17;19.40;;;8.15;;
54121;SDS011;40029;58.708;50.190;2023-03-04T10:25:51;11.07;;;6.03;;
54121;SDS011;40029;58.708;50.190;2023-03-04T10:28:24;16.92;;;8.68;;
54121;SDS011;40029;58.708;50.190;2023-03-04T10:34:11;16.83;;;9.32;;
54121;SDS011;40029;58.708;50.190;2023-03-04T10:39:44;23.77;;;8.77;;
54121;SDS011;40029;58.708;50.190;2023-03-04T10:44:52;14.60;;;5.45;;
54121;SDS011;40029;58.708;50.190;2023-03-04T10:47:28;11.50;;;6.53;;
54121;SDS011;40029;58.708;50.190;2023-03-04T10:50:02;11.00;;;6.07;;
54121;SDS011;40029;58.708;50.190;2023-03-04T10:52:38;15.15;;;7.88;;
54121;SDS011;40029;58.708;50.190;2023-03-04T10:55:17;15.70;;;8.25;;
54121;SDS011;40029;58.708;50.190;2023-03-04T10:57:51;39.33;;;16.42;;
54121;SDS011;40029;58.708;50.190;2023-03-04T11:00:29;10.30;;;4.50;;
54121;SDS011;40029;58.708;50.190;2023-03-04T11:08:41;44.42;;;16.67;;
54121;SDS011;40029;58.708;50.190;2023-03-04T11:14:25;34.75;;;14.90;;
54121;SDS011;40029;58.708;50.190;2023-03-04T11:17:00;27.50;;;10.57;;
54121;SDS011;40029;58.708;50.190;2023-03-04T11:19:37;25.67;;;11.40;;
54121;SDS011;40029;58.708;50.190;2023-03-04T11:22:09;22.17;;;9.35;;
54121;SDS011;40029;58.708;50.190;2023-03-04T11:24:47;33.25;;;16.77;;
54121;SDS011;40029;58.708;50.190;2023-03-04T11:27:44;29.20;;;13.30;;
54121;SDS011;40029;58.708;50.190;2023-03-04T11:30:26;16.55;;;8.93;;
54121;SDS011;40029;58.708;50.190;2023-03-04T11:33:13;22.33;;;10.75;;
54121;SDS011;40029;58.708;50.190;2023-03-04T11:38:49;17.98;;;8.68;;
54121;SDS011;40029;58.708;50.190;2023-03-04T11:41:40;17.90;;;9.27;;
54121;SDS011;40029;58.708;50.190;2023-03-04T11:44:17;25.85;;;12.23;;
54121;SDS011;40029;58.708;50.190;2023-03-04T11:52:59;19.65;;;9.45;;
54121;SDS011;40029;58.708;50.190;2023-03-04T12:10:04;17.33;;;8.65;;
54121;SDS011;40029;58.708;50.190;2023-03-04T12:30:48;13.50;;;7.05;;
54121;SDS011;40029;58.708;50.190;2023-03-04T12:36:31;19.48;;;7.85;;
54121;SDS011;40029;58.708;50.190;2023-03-04T12:39:24;14.50;;;7.43;;
54121;SDS011;40029;58.708;50.190;2023-03-04T12:42:06;14.90;;;7.55;;
54121;SDS011;40029;58.708;50.190;2023-03-04T12:51:27;15.65;;;7.47;;
54121;SDS011;40029;58.708;50.190;2023-03-04T12:54:15;13.35;;;7.47;;
54121;SDS011;40029;58.708;50.190;2023-03-04T12:57:18;16.25;;;7.70;;
54121;SDS011;40029;58.708;50.190;2023-03-04T13:02:54;16.17;;;7.70;;
54121;SDS011;40029;58.708;50.190;2023-03-04T13:06:12;19.35;;;8.13;;
54121;SDS011;40029;58.708;50.190;2023-03-04T13:09:05;19.50;;;8.60;;
54121;SDS011;40029;58.708;50.190;2023-03-04T13:17:49;20.33;;;9.65;;
54121;SDS011;40029;58.708;50.190;2023-03-04T13:23:21;17.83;;;8.32;;
54121;SDS011;40029;58.708;50.190;2023-03-04T13:28:29;29.05;;;13.15;;
54121;SDS011;40029;58.708;50.190;2023-03-04T13:33:58;29.67;;;14.02;;
54121;SDS011;40029;58.708;50.190;2023-03-04T13:36:32;31.73;;;14.43;;
54121;SDS011;40029;58.708;50.190;2023-03-04T13:39:22;39.92;;;18.45;;
54121;SDS011;40029;58.708;50.190;2023-03-04T13:41:56;63.38;;;25.88;;
54121;SDS011;40029;58.708;50.190;2023-03-04T13:44:33;52.22;;;22.30;;
54121;SDS011;40029;58.708;50.190;2023-03-04T13:47:26;29.55;;;14.35;;
54121;SDS011;40029;58.708;50.190;2023-03-04T14:10:25;138.48;;;50.08;;
54121;SDS011;40029;58.708;50.190;2023-03-04T14:12:56;126.10;;;48.25;;
54121;SDS011;40029;58.708;50.190;2023-03-04T14:15:29;252.57;;;91.35;;
54121;SDS011;40029;58.708;50.190;2023-03-04T14:18:02;297.35;;;103.88;;
54121;SDS011;40029;58.708;50.190;2023-03-04T14:20:36;188.77;;;62.00;;
54121;SDS011;40029;58.708;50.190;2023-03-04T14:26:03;37.00;;;16.85;;
54121;SDS011;40029;58.708;50.190;2023-03-04T14:28:47;108.05;;;39.50;;
54121;SDS011;40029;58.708;50.190;2023-03-04T14:31:20;108.38;;;42.15;;
54121;SDS011;40029;58.708;50.190;2023-03-04T14:34:15;113.13;;;42.55;;
54121;SDS011;40029;58.708;50.190;2023-03-04T14:37:03;76.65;;;28.88;;
54121;SDS011;40029;58.708;50.190;2023-03-04T14:40:17;102.45;;;40.80;;
54121;SDS011;40029;58.708;50.190;2023-03-04T14:42:56;105.63;;;38.60;;
54121;SDS011;40029;58.708;50.190;2023-03-04T14:45:49;70.78;;;28.25;;
54121;SDS011;40029;58.708;50.190;2023-03-04T14:48:27;52.25;;;22.13;;
54121;SDS011;40029;58.708;50.190;2023-03-04T14:51:01;50.33;;;22.90;;
54121;SDS011;40029;58.708;50.190;2023-03-04T14:53:33;58.80;;;25.90;;
54121;SDS011;40029;58.708;50.190;2023-03-04T14:56:06;54.85;;;24.05;;
54121;SDS011;40029;58.708;50.190;2023-03-04T14:58:50;57.55;;;22.67;;
54121;SDS011;40029;58.708;50.190;2023-03-04T15:01:32;46.83;;;20.75;;
54121;SDS011;40029;58.708;50.190;2023-03-04T15:04:08;34.78;;;15.00;;
54121;SDS011;40029;58.708;50.190;2023-03-04T15:06:53;26.02;;;11.80;;
54121;SDS011;40029;58.708;50.190;2023-03-04T15:09:25;23.23;;;9.18;;
54121;SDS011;40029;58.708;50.190;2023-03-04T15:14:40;19.40;;;9.15;;
54121;SDS011;40029;58.708;50.190;2023-03-04T15:17:22;19.63;;;8.85;;
54121;SDS011;40029;58.708;50.190;2023-03-04T15:25:13;19.85;;;8.57;;
54121;SDS011;40029;58.708;50.190;2023-03-04T15:28:05;19.38;;;8.85;;
54121;SDS011;40029;58.708;50.190;2023-03-04T15:30:42;19.17;;;9.38;;
54121;SDS011;40029;58.708;50.190;2023-03-04T15:33:31;22.15;;;10.18;;
54121;SDS011;40029;58.708;50.190;2023-03-04T15:36:03;29.90;;;11.95;;
54121;SDS011;40029;58.708;50.190;2023-03-04T15:38:35;23.20;;;9.60;;
54121;SDS011;40029;58.708;50.190;2023-03-04T15:41:10;13.07;;;6.20;;
54121;SDS011;40029;58.708;50.190;2023-03-04T15:43:41;9.73;;;5.70;;
54121;SDS011;40029;58.708;50.190;2023-03-04T15:46:13;12.30;;;5.03;;
54121;SDS011;40029;58.708;50.190;2023-03-04T15:48:44;10.68;;;5.55;;
54121;SDS011;40029;58.708;50.190;2023-03-04T15:51:19;8.48;;;4.78;;
54121;SDS011;40029;58.708;50.190;2023-03-04T15:53:52;10.45;;;5.13;;
54121;SDS011;40029;58.708;50.190;2023-03-04T15:56:29;8.10;;;5.05;;
54121;SDS011;40029;58.708;50.190;2023-03-04T15:59:03;8.27;;;5.20;;
54121;SDS011;40029;58.708;50.190;2023-03-04T16:01:58;11.20;;;4.55;;
54121;SDS011;40029;58.708;50.190;2023-03-04T16:04:29;9.70;;;4.78;;
54121;SDS011;40029;58.708;50.190;2023-03-04T16:07:20;13.18;;;5.57;;
54121;SDS011;40029;58.708;50.190;2023-03-04T16:09:54;14.60;;;6.15;;
54121;SDS011;40029;58.708;50.190;2023-03-04T16:12:29;10.02;;;5.78;;
54121;SDS011;40029;58.708;50.190;2023-03-04T16:15:20;13.15;;;6.43;;
54121;SDS011;40029;58.708;50.190;2023-03-04T16:17:52;13.33;;;6.20;;
54121;SDS011;40029;58.708;50.190;2023-03-04T16:20:26;16.33;;;8.15;;
54121;SDS011;40029;58.708;50.190;2023-03-04T16:22:59;20.45;;;7.60;;
54121;SDS011;40029;58.708;50.190;2023-03-04T16:25:31;22.40;;;9.38;;
54121;SDS011;40029;58.708;50.190;2023-03-04T16:28:03;24.45;;;12.15;;
54121;SDS011;40029;58.708;50.190;2023-03-04T16:30:52;27.65;;;14.35;;
54121;SDS011;40029;58.708;50.190;2023-03-04T16:33:23;23.65;;;11.45;;
54121;SDS011;40029;58.708;50.190;2023-03-04T16:35:55;21.42;;;10.98;;
54121;SDS011;40029;58.708;50.190;2023-03-04T16:38:27;15.88;;;8.57;;
54121;SDS011;40029;58.708;50.190;2023-03-04T16:41:01;12.60;;;7.20;;
54121;SDS011;40029;58.708;50.190;2023-03-04T16:43:32;14.48;;;8.52;;
54121;SDS011;40029;58.708;50.190;2023-03-04T16:46:04;14.05;;;7.45;;
54121;SDS011;40029;58.708;50.190;2023-03-04T16:48:35;21.35;;;10.02;;
54121;SDS011;40029;58.708;50.190;2023-03-04T16:51:11;24.20;;;11.98;;
54121;SDS011;40029;58.708;50.190;2023-03-04T16:53:53;33.03;;;13.93;;
54121;SDS011;40029;58.708;50.190;2023-03-04T16:56:45;65.47;;;21.08;;
54121;SDS011;40029;58.708;50.190;2023-03-04T16:59:17;59.03;;;18.38;;
54121;SDS011;40029;58.708;50.190;2023-03-04T17:01:48;55.45;;;17.83;;
54121;SDS011;40029;58.708;50.190;2023-03-04T17:04:20;53.58;;;17.08;;
54121;SDS011;40029;58.708;50.190;2023-03-04T17:06:52;79.95;;;21.88;;
54121;SDS011;40029;58.708;50.190;2023-03-04T17:09:24;53.92;;;16.52;;
54121;SDS011;40029;58.708;50.190;2023-03-04T17:11:55;65.25;;;22.15;;
54121;SDS011;40029;58.708;50.190;2023-03-04T17:14:27;46.88;;;15.63;;
54121;SDS011;40029;58.708;50.190;2023-03-04T17:16:58;58.45;;;18.88;;